IL49 weather

Desutter Farm Heliport
Manito, Illinois, United States

Public forecast

Using degrees Fahrenheit for public forecast. Weather courtesy of forecast.io.

METAR (pilot weather report)

Closest report is General Wayne A. Downing Peoria International Airport, 15.6 nm (28.8 km) N. Retrieved 2019/09/18 18:54 UTC (30 minutes ago):

KPIA 181854Z 14006KT 10SM CLR 29/19 A3008 RMK AO2 SLP182 T02890189

TAF (pilot weather forecast)

Closest forecast is General Wayne A. Downing Peoria International Airport, 15.6 nm (28.8 km) N. Retrieved 2019/09/18 18:24 UTC (1 hour ago):

TAF KPIA 181721Z 1818/1918 14006KT P6SM FEW150 SCT250